createdAt,value
2018-08-31T00:00:16.874Z,10.56
2018-08-31T00:01:13.800Z,10.56
2018-08-31T00:02:57.132Z,10.56
2018-08-31T00:04:55.820Z,10.56
2018-08-31T00:05:55.784Z,10.56
2018-08-31T00:07:56.078Z,10.50
2018-08-31T00:11:05.464Z,10.50
2018-08-31T00:13:06.069Z,10.50
2018-08-31T00:13:39.578Z,10.44
2018-08-31T00:14:13.094Z,10.44
2018-08-31T00:14:46.652Z,10.44
2018-08-31T00:15:20.248Z,10.44
2018-08-31T00:15:53.790Z,10.44
2018-08-31T00:16:27.328Z,10.44
2018-08-31T00:17:01.033Z,10.44
2018-08-31T00:17:35.204Z,10.38
2018-08-31T00:18:08.780Z,10.38
2018-08-31T00:18:42.327Z,10.38
2018-08-31T00:19:16.162Z,10.38
2018-08-31T00:19:49.696Z,10.38
2018-08-31T00:20:23.304Z,10.38
2018-08-31T00:20:56.829Z,10.38
2018-08-31T00:21:30.354Z,10.38
2018-08-31T00:22:03.901Z,10.38
2018-08-31T00:22:37.596Z,10.31
2018-08-31T00:23:11.138Z,10.31
2018-08-31T00:24:07.964Z,10.31
2018-08-31T00:26:12.692Z,10.31
2018-08-31T00:27:09.804Z,10.31
2018-08-31T00:28:06.664Z,10.31
2018-08-31T00:29:51.678Z,10.31
2018-08-31T00:31:48.460Z,10.25
2018-08-31T00:35:02.177Z,10.31
2018-08-31T00:37:05.112Z,10.25
2018-08-31T00:42:17.035Z,10.25
2018-08-31T00:43:06.532Z,10.25
2018-08-31T00:45:49.356Z,10.25
2018-08-31T00:46:23.204Z,10.19
2018-08-31T00:46:56.748Z,10.25
2018-08-31T00:47:30.331Z,10.19
2018-08-31T00:48:04.286Z,10.19
2018-08-31T00:48:37.782Z,10.19
2018-08-31T00:49:11.345Z,10.19
2018-08-31T00:49:45.046Z,10.19
2018-08-31T00:50:18.595Z,10.19
2018-08-31T00:50:52.237Z,10.19
2018-08-31T00:51:25.803Z,10.19
2018-08-31T00:51:59.338Z,10.19
2018-08-31T00:52:32.947Z,10.19
2018-08-31T00:53:06.894Z,10.19
2018-08-31T00:53:40.443Z,10.19
2018-08-31T00:54:13.986Z,10.19
2018-08-31T00:54:47.564Z,10.19
2018-08-31T00:55:21.138Z,10.19
2018-08-31T00:55:54.691Z,10.13
2018-08-31T00:56:28.221Z,10.13
2018-08-31T00:57:01.764Z,10.13
2018-08-31T00:57:35.320Z,10.13
2018-08-31T00:58:08.880Z,10.13
2018-08-31T00:58:42.447Z,10.13
2018-08-31T00:59:16.000Z,10.13
2018-08-31T00:59:49.580Z,10.13
2018-08-31T01:00:23.190Z,10.06
2018-08-31T01:00:56.774Z,10.06
2018-08-31T01:01:30.306Z,10.06
2018-08-31T01:02:04.004Z,10.06
2018-08-31T01:02:37.540Z,10.06
2018-08-31T01:03:11.050Z,10.06
2018-08-31T01:03:44.588Z,10.06
2018-08-31T01:04:18.112Z,10.06
2018-08-31T01:04:51.652Z,10.06
2018-08-31T01:05:25.244Z,10.06
2018-08-31T01:05:58.889Z,10.06
2018-08-31T01:06:32.446Z,10.06
2018-08-31T01:07:06.168Z,10.06
2018-08-31T01:07:39.786Z,10.06
2018-08-31T01:08:13.323Z,10.06
2018-08-31T01:08:46.856Z,10.00
2018-08-31T01:09:20.398Z,10.00
2018-08-31T01:09:53.964Z,10.00
2018-08-31T01:10:27.520Z,10.00
2018-08-31T01:11:01.112Z,10.00
2018-08-31T01:11:34.696Z,10.00
2018-08-31T01:12:08.626Z,10.00
2018-08-31T01:12:42.216Z,10.00
2018-08-31T01:13:15.744Z,10.00
2018-08-31T01:13:49.346Z,10.00
2018-08-31T01:14:22.872Z,10.00
2018-08-31T01:14:56.463Z,10.00
2018-08-31T01:15:30.022Z,10.00
2018-08-31T01:16:03.650Z,10.00
2018-08-31T01:16:37.290Z,10.00
2018-08-31T01:17:10.833Z,10.00
2018-08-31T01:17:44.422Z,9.94
2018-08-31T01:18:17.992Z,9.94
2018-08-31T01:18:51.532Z,10.00
2018-08-31T01:19:25.124Z,9.94
2018-08-31T01:19:58.807Z,9.94
2018-08-31T01:20:32.377Z,9.94
2018-08-31T01:21:06.219Z,9.94
2018-08-31T01:21:39.758Z,9.94
2018-08-31T01:22:13.306Z,9.94
2018-08-31T01:22:46.850Z,9.94
2018-08-31T01:23:20.431Z,9.94
2018-08-31T01:23:53.971Z,9.94
2018-08-31T01:24:27.536Z,9.94
2018-08-31T01:25:01.102Z,9.94
2018-08-31T01:25:34.847Z,9.94
2018-08-31T01:26:08.404Z,9.94
2018-08-31T01:26:41.934Z,9.94
2018-08-31T01:27:15.490Z,9.94
2018-08-31T01:27:49.072Z,9.94
2018-08-31T01:28:22.613Z,9.94
2018-08-31T01:28:56.158Z,9.94
2018-08-31T01:29:29.702Z,9.94
2018-08-31T01:30:03.742Z,9.94
2018-08-31T01:30:37.298Z,9.94
2018-08-31T01:31:10.828Z,9.88
2018-08-31T01:31:44.368Z,9.88
2018-08-31T01:32:17.932Z,9.88
2018-08-31T01:32:51.450Z,9.88
2018-08-31T01:33:24.982Z,9.88
2018-08-31T01:33:58.552Z,9.88
2018-08-31T01:34:32.172Z,9.88
2018-08-31T01:35:05.834Z,9.88
2018-08-31T01:35:39.382Z,9.88
2018-08-31T01:36:12.932Z,9.88
2018-08-31T01:36:46.455Z,9.88
2018-08-31T01:37:19.984Z,9.88
2018-08-31T01:37:53.536Z,9.88
2018-08-31T01:38:27.083Z,9.88
2018-08-31T01:39:00.644Z,9.88
2018-08-31T01:39:34.468Z,9.88
2018-08-31T01:40:08.136Z,9.88
2018-08-31T01:40:41.883Z,9.88
2018-08-31T01:41:15.384Z,9.88
2018-08-31T01:41:48.962Z,9.88
2018-08-31T01:42:22.512Z,9.88
2018-08-31T01:42:56.082Z,9.88
2018-08-31T01:43:29.639Z,9.88
2018-08-31T01:44:03.183Z,9.88
2018-08-31T01:44:36.788Z,9.88
2018-08-31T01:45:10.382Z,9.88
2018-08-31T01:45:43.896Z,9.88
2018-08-31T01:46:17.442Z,9.81
2018-08-31T01:46:51.000Z,9.81
2018-08-31T01:47:24.541Z,9.81
2018-08-31T01:47:58.103Z,9.88
2018-08-31T01:48:31.673Z,9.88
2018-08-31T01:49:05.262Z,9.81
2018-08-31T01:49:38.806Z,9.81
2018-08-31T01:50:12.703Z,9.81
2018-08-31T01:50:51.914Z,9.81
2018-08-31T01:51:25.487Z,9.81
2018-08-31T01:51:59.034Z,9.81
2018-08-31T01:52:32.651Z,9.81
2018-08-31T01:53:06.161Z,9.81
2018-08-31T01:53:39.697Z,9.81
2018-08-31T01:54:13.240Z,9.81
2018-08-31T01:54:46.763Z,9.81
2018-08-31T01:55:25.871Z,9.81
2018-08-31T01:55:59.442Z,9.81
2018-08-31T01:56:33.124Z,9.81
2018-08-31T01:57:06.676Z,9.81
2018-08-31T01:57:40.198Z,9.81
2018-08-31T01:58:13.746Z,9.81
2018-08-31T01:58:47.294Z,9.75
2018-08-31T01:59:20.820Z,9.75
2018-08-31T01:59:54.351Z,9.75
2018-08-31T02:00:28.153Z,9.75
2018-08-31T02:01:01.716Z,9.75
2018-08-31T02:01:35.333Z,9.75
2018-08-31T02:02:08.892Z,9.75
2018-08-31T02:02:42.445Z,9.75
2018-08-31T02:03:15.958Z,9.75
2018-08-31T02:03:49.662Z,9.75
2018-08-31T02:04:23.194Z,9.75
2018-08-31T02:04:56.807Z,9.75
2018-08-31T02:05:30.374Z,9.75
2018-08-31T02:06:04.305Z,9.75
2018-08-31T02:06:37.840Z,9.75
2018-08-31T02:07:13.695Z,9.69
2018-08-31T02:07:47.251Z,9.69
2018-08-31T02:08:20.785Z,9.69
2018-08-31T02:09:00.016Z,9.69
2018-08-31T02:09:33.594Z,9.69
2018-08-31T02:10:07.151Z,9.69
2018-08-31T02:10:40.702Z,9.69
2018-08-31T02:11:14.360Z,9.69
2018-08-31T02:11:49.099Z,9.69
2018-08-31T02:12:22.686Z,9.69
2018-08-31T02:12:56.250Z,9.69
2018-08-31T02:13:29.836Z,9.69
2018-08-31T02:14:03.691Z,9.69
2018-08-31T02:14:37.216Z,9.69
2018-08-31T02:15:10.782Z,9.69
2018-08-31T02:15:44.402Z,9.69
2018-08-31T02:16:18.004Z,9.69
2018-08-31T02:16:51.561Z,9.69
2018-08-31T02:17:25.094Z,9.63
2018-08-31T02:17:58.645Z,9.63
2018-08-31T02:18:32.210Z,9.63
2018-08-31T02:19:05.753Z,9.69
2018-08-31T02:19:39.319Z,9.69
2018-08-31T02:20:12.916Z,9.69
2018-08-31T02:20:46.427Z,9.63
2018-08-31T02:21:19.990Z,9.69
2018-08-31T02:21:53.508Z,9.69
2018-08-31T02:22:27.160Z,9.69
2018-08-31T02:23:00.695Z,9.69
2018-08-31T02:23:34.296Z,9.69
2018-08-31T02:24:07.912Z,9.69
2018-08-31T02:24:41.458Z,9.69
2018-08-31T02:25:15.046Z,9.69
2018-08-31T02:25:48.618Z,9.69
2018-08-31T02:26:22.162Z,9.75
2018-08-31T02:26:55.661Z,9.75
2018-08-31T02:27:29.224Z,9.75
2018-08-31T02:28:02.774Z,9.75
2018-08-31T02:28:36.278Z,9.75
2018-08-31T02:29:09.804Z,9.75
2018-08-31T02:29:43.346Z,9.75
2018-08-31T02:30:16.911Z,9.75
2018-08-31T02:30:50.443Z,9.75
2018-08-31T02:31:24.046Z,9.81
2018-08-31T02:31:57.599Z,9.81
2018-08-31T02:32:31.128Z,9.81
2018-08-31T02:33:05.066Z,9.81
2018-08-31T02:33:38.565Z,9.81
2018-08-31T02:34:12.096Z,9.81
2018-08-31T02:34:45.652Z,9.81
2018-08-31T02:35:19.200Z,9.81
2018-08-31T02:35:52.725Z,9.81
2018-08-31T02:36:26.326Z,9.88
2018-08-31T02:36:59.878Z,9.88
2018-08-31T02:37:33.385Z,9.88
2018-08-31T02:38:06.902Z,9.88
2018-08-31T02:38:40.522Z,9.88
2018-08-31T02:39:14.103Z,9.88
2018-08-31T02:39:47.587Z,9.94
2018-08-31T02:40:21.120Z,9.94
2018-08-31T02:40:54.650Z,9.94
2018-08-31T02:41:28.201Z,9.94
2018-08-31T02:42:01.768Z,10.00
2018-08-31T02:42:35.447Z,10.00
2018-08-31T02:43:09.008Z,10.00
2018-08-31T02:43:43.534Z,10.00
2018-08-31T02:44:17.138Z,10.00
2018-08-31T02:44:50.698Z,10.06
2018-08-31T02:45:24.374Z,10.06
2018-08-31T02:45:57.905Z,10.06
2018-08-31T02:46:31.481Z,10.06
2018-08-31T02:47:05.050Z,10.06
2018-08-31T02:47:38.607Z,10.13
2018-08-31T02:48:12.138Z,10.13
2018-08-31T02:48:46.077Z,10.13
2018-08-31T02:49:19.627Z,10.13
2018-08-31T02:49:53.172Z,10.13
2018-08-31T02:50:26.733Z,10.19
2018-08-31T02:51:00.418Z,10.19
2018-08-31T02:51:33.957Z,10.19
2018-08-31T02:52:07.488Z,10.19
2018-08-31T02:52:41.014Z,10.19
2018-08-31T02:53:14.668Z,10.19
2018-08-31T02:53:48.240Z,10.19
2018-08-31T02:54:21.780Z,10.19
2018-08-31T02:54:55.305Z,10.19
2018-08-31T02:55:28.858Z,10.25
2018-08-31T02:56:02.392Z,10.25
2018-08-31T02:56:35.919Z,10.25
2018-08-31T02:57:09.416Z,10.25
2018-08-31T02:57:42.997Z,10.25
2018-08-31T02:58:16.551Z,10.25
2018-08-31T02:58:50.111Z,10.25
2018-08-31T02:59:23.640Z,10.25
2018-08-31T02:59:57.192Z,10.25
2018-08-31T03:00:30.745Z,10.25
2018-08-31T03:01:04.336Z,10.25
2018-08-31T03:01:37.944Z,10.25
2018-08-31T03:02:11.464Z,10.25
2018-08-31T03:02:45.004Z,10.31
2018-08-31T03:03:18.530Z,10.31
2018-08-31T03:03:52.074Z,10.31
2018-08-31T03:04:25.624Z,10.31
2018-08-31T03:04:59.162Z,10.31
2018-08-31T03:05:32.688Z,10.31
2018-08-31T03:06:06.301Z,10.31
2018-08-31T03:06:39.866Z,10.38
2018-08-31T03:07:13.596Z,10.38
2018-08-31T03:07:47.152Z,10.38
2018-08-31T03:08:20.769Z,10.38
2018-08-31T03:08:54.348Z,10.38
2018-08-31T03:09:27.905Z,10.38
2018-08-31T03:10:01.426Z,10.38
2018-08-31T03:10:34.929Z,10.38
2018-08-31T03:11:08.523Z,10.44
2018-08-31T03:11:42.108Z,10.44
2018-08-31T03:12:15.608Z,10.44
2018-08-31T03:12:49.176Z,10.44
2018-08-31T03:13:22.746Z,10.44
2018-08-31T03:13:56.314Z,10.44
2018-08-31T03:14:29.858Z,10.44
2018-08-31T03:15:03.424Z,10.44
2018-08-31T03:15:37.002Z,10.44
2018-08-31T03:16:10.532Z,10.50
2018-08-31T03:16:44.064Z,10.50
2018-08-31T03:17:17.639Z,10.50
2018-08-31T03:17:51.196Z,10.50
2018-08-31T03:18:24.792Z,10.50
2018-08-31T03:18:58.358Z,10.50
2018-08-31T03:19:31.880Z,10.56
2018-08-31T03:20:05.490Z,10.56
2018-08-31T03:20:39.036Z,10.56
2018-08-31T03:21:12.635Z,10.56
2018-08-31T03:21:46.153Z,10.56
2018-08-31T03:22:19.697Z,10.63
2018-08-31T03:22:53.252Z,10.63
2018-08-31T03:23:26.796Z,10.63
2018-08-31T03:24:00.333Z,10.63
2018-08-31T03:24:33.935Z,10.63
2018-08-31T03:25:07.523Z,10.63
2018-08-31T03:25:41.040Z,10.63
2018-08-31T03:26:14.587Z,10.63
2018-08-31T03:26:48.140Z,10.63
2018-08-31T03:27:21.686Z,10.69
2018-08-31T03:27:55.564Z,10.69
2018-08-31T03:28:29.117Z,10.69
2018-08-31T03:29:02.655Z,10.69
2018-08-31T03:29:36.219Z,10.69
2018-08-31T03:30:09.791Z,10.69
2018-08-31T03:30:43.319Z,10.69
2018-08-31T03:31:16.867Z,10.69
2018-08-31T03:31:50.383Z,10.75
2018-08-31T03:32:23.948Z,10.75
2018-08-31T03:32:57.484Z,10.75
2018-08-31T03:33:30.995Z,10.75
2018-08-31T03:34:04.686Z,10.75
2018-08-31T03:34:38.190Z,10.75
2018-08-31T03:35:11.748Z,10.81
2018-08-31T03:35:45.340Z,10.81
2018-08-31T03:36:18.882Z,10.81
2018-08-31T03:36:52.437Z,10.81
2018-08-31T03:37:25.995Z,10.81
2018-08-31T03:37:59.560Z,10.81
2018-08-31T03:38:33.092Z,10.81
2018-08-31T03:39:09.379Z,10.81
2018-08-31T03:39:42.911Z,10.81
2018-08-31T03:40:16.479Z,10.81
2018-08-31T03:40:50.027Z,10.81
2018-08-31T03:41:23.531Z,10.88
2018-08-31T03:41:57.059Z,10.88
2018-08-31T03:42:30.613Z,10.88
2018-08-31T03:43:04.429Z,10.88
2018-08-31T03:43:37.995Z,10.88
2018-08-31T03:44:11.609Z,10.88
2018-08-31T03:44:45.168Z,10.88
2018-08-31T03:45:18.692Z,10.94
2018-08-31T03:45:52.250Z,10.94
2018-08-31T03:46:25.771Z,10.94
2018-08-31T03:46:59.299Z,10.94
2018-08-31T03:47:32.825Z,10.94
2018-08-31T03:48:06.399Z,10.94
2018-08-31T03:48:39.928Z,10.94
2018-08-31T03:49:13.454Z,11.00
2018-08-31T03:49:46.995Z,11.00
2018-08-31T03:50:20.583Z,11.00
2018-08-31T03:50:54.112Z,11.00
2018-08-31T03:51:27.833Z,11.00
2018-08-31T03:52:01.407Z,11.00
2018-08-31T03:52:34.957Z,11.00
2018-08-31T03:53:08.469Z,11.00
2018-08-31T03:53:42.018Z,11.00
2018-08-31T03:54:15.600Z,11.00
2018-08-31T03:54:49.351Z,11.00
2018-08-31T03:55:22.939Z,11.06
2018-08-31T03:55:56.463Z,11.06
2018-08-31T03:56:30.080Z,11.06
2018-08-31T03:57:03.713Z,11.06
2018-08-31T03:57:37.380Z,11.06
2018-08-31T03:58:10.985Z,11.12
2018-08-31T03:58:44.497Z,11.12
2018-08-31T03:59:18.073Z,11.19
2018-08-31T03:59:51.818Z,11.19
2018-08-31T04:00:25.368Z,11.19
2018-08-31T04:00:58.858Z,11.19
2018-08-31T04:01:32.421Z,11.25
2018-08-31T04:02:06.023Z,11.25
2018-08-31T04:02:39.539Z,11.25
2018-08-31T04:03:13.083Z,11.25
2018-08-31T04:03:46.669Z,11.25
2018-08-31T04:04:20.241Z,11.25
2018-08-31T04:04:53.775Z,11.25
2018-08-31T04:05:27.334Z,11.25
2018-08-31T04:06:00.903Z,11.25
2018-08-31T04:06:34.428Z,11.25
2018-08-31T04:07:07.974Z,11.31
2018-08-31T04:07:41.543Z,11.31
2018-08-31T04:08:15.211Z,11.31
2018-08-31T04:08:48.767Z,11.31
2018-08-31T04:09:22.283Z,11.38
2018-08-31T04:09:55.826Z,11.38
2018-08-31T04:10:29.355Z,11.38
2018-08-31T04:11:02.875Z,11.38
2018-08-31T04:11:36.425Z,11.44
2018-08-31T04:12:09.961Z,11.44
2018-08-31T04:12:43.479Z,11.44
2018-08-31T04:13:17.016Z,11.44
2018-08-31T04:13:50.519Z,11.44
2018-08-31T04:14:24.041Z,11.44
2018-08-31T04:14:57.753Z,11.44
2018-08-31T04:15:31.262Z,11.44
2018-08-31T04:16:04.820Z,11.44
2018-08-31T04:16:38.349Z,11.44
2018-08-31T04:17:11.917Z,11.44
2018-08-31T04:17:45.481Z,11.44
2018-08-31T04:18:19.057Z,11.44
2018-08-31T04:18:52.633Z,11.44
2018-08-31T04:19:26.159Z,11.44
2018-08-31T04:19:59.685Z,11.44
2018-08-31T04:20:33.247Z,11.50
2018-08-31T04:21:06.809Z,11.50
2018-08-31T04:21:40.344Z,11.50
2018-08-31T04:22:13.877Z,11.50
2018-08-31T04:22:47.457Z,11.50
2018-08-31T04:23:21.005Z,11.50
2018-08-31T04:23:54.522Z,11.50
2018-08-31T04:24:28.056Z,11.50
2018-08-31T04:25:01.606Z,11.56
2018-08-31T04:25:35.119Z,11.56
2018-08-31T04:26:08.703Z,11.56
2018-08-31T04:26:42.284Z,11.56
2018-08-31T04:27:15.827Z,11.56
2018-08-31T04:27:49.367Z,11.63
2018-08-31T04:28:22.909Z,11.63
2018-08-31T04:28:56.413Z,11.69
2018-08-31T04:29:29.943Z,11.69
2018-08-31T04:30:04.120Z,11.69
2018-08-31T04:30:37.620Z,11.75
2018-08-31T04:31:11.171Z,11.75
2018-08-31T04:31:44.718Z,11.75
2018-08-31T04:32:18.280Z,11.75
2018-08-31T04:32:51.907Z,11.75
2018-08-31T04:33:25.496Z,11.81
2018-08-31T04:33:59.113Z,11.81
2018-08-31T04:34:32.673Z,11.81
2018-08-31T04:35:06.590Z,11.81
2018-08-31T04:35:40.129Z,11.81
2018-08-31T04:36:13.689Z,11.88
2018-08-31T04:36:47.298Z,11.88
2018-08-31T04:37:20.869Z,11.88
2018-08-31T04:37:54.398Z,11.88
2018-08-31T04:38:28.008Z,11.88
2018-08-31T04:39:01.530Z,11.88
2018-08-31T04:39:35.112Z,11.88
2018-08-31T04:40:08.721Z,11.88
2018-08-31T04:40:42.320Z,11.88
2018-08-31T04:41:15.895Z,11.88
2018-08-31T04:41:49.425Z,11.88
2018-08-31T04:42:23.010Z,11.88
2018-08-31T04:42:56.675Z,11.88
2018-08-31T04:43:30.088Z,11.88
2018-08-31T04:44:03.644Z,11.88
2018-08-31T04:44:37.213Z,11.88
2018-08-31T04:45:10.732Z,11.88
2018-08-31T04:45:44.246Z,11.81
2018-08-31T04:46:17.760Z,11.81
2018-08-31T04:46:51.368Z,11.81
2018-08-31T04:47:24.948Z,11.81
2018-08-31T04:47:58.492Z,11.81
2018-08-31T04:48:32.032Z,11.75
2018-08-31T04:49:05.781Z,11.75
2018-08-31T04:49:39.276Z,11.75
2018-08-31T04:50:12.915Z,11.75
2018-08-31T04:50:46.434Z,11.75
2018-08-31T04:51:19.992Z,11.75
2018-08-31T04:51:53.544Z,11.75
2018-08-31T04:52:27.088Z,11.75
2018-08-31T04:53:00.627Z,11.75
2018-08-31T04:53:34.194Z,11.69
2018-08-31T04:54:07.738Z,11.69
2018-08-31T04:54:41.252Z,11.69
2018-08-31T04:55:14.795Z,11.69
2018-08-31T04:55:48.332Z,11.69
2018-08-31T04:56:21.893Z,11.69
2018-08-31T04:56:55.431Z,11.69
2018-08-31T04:57:28.970Z,11.63
2018-08-31T04:58:02.529Z,11.63
2018-08-31T04:58:36.039Z,11.63
2018-08-31T04:59:09.589Z,11.63
2018-08-31T04:59:43.130Z,11.63
2018-08-31T05:00:16.672Z,11.63
2018-08-31T05:00:50.185Z,11.63
2018-08-31T05:01:23.862Z,11.63
2018-08-31T05:01:57.413Z,11.69
2018-08-31T05:02:30.947Z,11.69
2018-08-31T05:03:04.715Z,11.75
2018-08-31T05:03:38.304Z,11.75
2018-08-31T05:04:11.954Z,11.81
2018-08-31T05:04:45.491Z,11.81
2018-08-31T05:05:19.063Z,11.88
2018-08-31T05:05:52.613Z,11.88
2018-08-31T05:06:26.123Z,11.88
2018-08-31T05:06:59.695Z,11.94
2018-08-31T05:07:33.251Z,11.94
2018-08-31T05:08:06.831Z,11.94
2018-08-31T05:08:40.364Z,11.94
2018-08-31T05:09:13.888Z,11.88
2018-08-31T05:09:47.441Z,11.88
2018-08-31T05:10:21.067Z,11.88
2018-08-31T05:10:54.673Z,11.88
2018-08-31T05:11:28.207Z,11.88
2018-08-31T05:12:01.817Z,11.94
2018-08-31T05:12:35.401Z,11.94
2018-08-31T05:13:08.964Z,11.94
2018-08-31T05:13:42.542Z,11.88
2018-08-31T05:14:16.070Z,11.88
2018-08-31T05:14:49.602Z,11.88
2018-08-31T05:15:23.151Z,11.88
2018-08-31T05:15:56.956Z,11.88
2018-08-31T05:16:30.471Z,11.88
2018-08-31T05:17:04.090Z,11.88
2018-08-31T05:17:37.602Z,11.88
2018-08-31T05:18:11.255Z,11.88
2018-08-31T05:18:44.828Z,11.88
2018-08-31T05:19:18.347Z,11.94
2018-08-31T05:19:51.867Z,11.94
2018-08-31T05:20:25.403Z,11.94
2018-08-31T05:20:58.943Z,12.00
2018-08-31T05:21:32.475Z,12.00
2018-08-31T05:22:06.194Z,12.00
2018-08-31T05:22:39.668Z,12.00
2018-08-31T05:23:13.171Z,12.00
2018-08-31T05:23:46.769Z,12.00
2018-08-31T05:24:20.332Z,12.00
2018-08-31T05:24:53.885Z,12.06
2018-08-31T05:25:27.471Z,12.06
2018-08-31T05:26:01.126Z,12.06
2018-08-31T05:26:34.633Z,12.06
2018-08-31T05:27:08.135Z,12.06
2018-08-31T05:27:41.680Z,12.06
2018-08-31T05:28:15.233Z,12.06
2018-08-31T05:28:48.786Z,12.13
2018-08-31T05:29:22.365Z,12.13
2018-08-31T05:29:55.937Z,12.13
2018-08-31T05:30:29.477Z,12.13
2018-08-31T05:31:03.069Z,12.13
2018-08-31T05:31:36.605Z,12.13
2018-08-31T05:32:10.150Z,12.13
2018-08-31T05:32:43.689Z,12.13
2018-08-31T05:33:17.275Z,12.13
2018-08-31T05:33:50.923Z,12.13
2018-08-31T05:34:24.508Z,12.06
2018-08-31T05:34:58.056Z,12.06
2018-08-31T05:35:31.598Z,12.06
2018-08-31T05:36:05.219Z,12.06
2018-08-31T05:36:38.847Z,12.06
2018-08-31T05:37:12.405Z,12.13
2018-08-31T05:37:45.916Z,12.06
2018-08-31T05:38:19.477Z,12.06
2018-08-31T05:38:53.059Z,12.06
2018-08-31T05:39:26.600Z,12.13
2018-08-31T05:40:00.162Z,12.13
2018-08-31T05:40:33.671Z,12.13
2018-08-31T05:41:07.215Z,12.13
2018-08-31T05:41:41.342Z,12.13
2018-08-31T05:42:14.887Z,12.13
2018-08-31T05:42:48.395Z,12.19
2018-08-31T05:43:22.002Z,12.19
2018-08-31T05:43:55.560Z,12.19
2018-08-31T05:44:29.093Z,12.25
2018-08-31T05:45:02.659Z,12.25
2018-08-31T05:45:36.285Z,12.25
2018-08-31T05:46:09.822Z,12.31
2018-08-31T05:46:43.355Z,12.31
2018-08-31T05:47:16.915Z,12.31
2018-08-31T05:47:50.469Z,12.37
2018-08-31T05:48:24.053Z,12.37
2018-08-31T05:48:57.603Z,12.37
2018-08-31T05:49:31.128Z,12.37
2018-08-31T05:50:04.941Z,12.37
2018-08-31T05:50:38.499Z,12.37
2018-08-31T05:51:12.021Z,12.44
2018-08-31T05:51:45.573Z,12.44
2018-08-31T05:52:19.098Z,12.44
2018-08-31T05:52:52.619Z,12.44
2018-08-31T05:53:26.131Z,12.44
2018-08-31T05:53:59.668Z,12.44
2018-08-31T05:54:33.224Z,12.44
2018-08-31T05:55:06.836Z,12.44
2018-08-31T05:55:40.353Z,12.44
2018-08-31T05:56:13.886Z,12.44
2018-08-31T05:56:47.467Z,12.44
2018-08-31T05:57:21.023Z,12.44
2018-08-31T05:57:54.523Z,12.44
2018-08-31T05:58:28.048Z,12.50
2018-08-31T05:59:01.604Z,12.50
2018-08-31T05:59:35.193Z,12.50
2018-08-31T06:00:08.876Z,12.50
2018-08-31T06:00:42.415Z,12.50
2018-08-31T06:01:15.960Z,12.50
2018-08-31T06:01:49.510Z,12.56
2018-08-31T06:02:23.080Z,12.56
2018-08-31T06:02:56.739Z,12.56
2018-08-31T06:03:30.277Z,12.56
2018-08-31T06:04:03.835Z,12.56
2018-08-31T06:04:37.380Z,12.63
2018-08-31T06:05:10.970Z,12.63
2018-08-31T06:05:44.525Z,12.63
2018-08-31T06:06:18.091Z,12.63
2018-08-31T06:06:51.595Z,12.63
2018-08-31T06:07:25.137Z,12.63
2018-08-31T06:07:58.672Z,12.69
2018-08-31T06:08:32.191Z,12.69
2018-08-31T06:09:08.456Z,12.69
2018-08-31T06:09:41.985Z,12.69
2018-08-31T06:10:15.546Z,12.69
2018-08-31T06:10:49.102Z,12.69
2018-08-31T06:11:22.659Z,12.69
2018-08-31T06:11:56.273Z,12.75
2018-08-31T06:12:29.875Z,12.75
2018-08-31T06:13:03.511Z,12.75
2018-08-31T06:13:37.071Z,12.75
2018-08-31T06:14:10.831Z,12.75
2018-08-31T06:14:44.405Z,12.75
2018-08-31T06:15:18.154Z,12.75
2018-08-31T06:15:51.691Z,12.81
2018-08-31T06:16:25.221Z,12.81
2018-08-31T06:16:58.783Z,12.81
2018-08-31T06:17:32.349Z,12.81
2018-08-31T06:18:06.055Z,12.81
2018-08-31T06:18:39.615Z,12.81
2018-08-31T06:19:13.225Z,12.81
2018-08-31T06:19:46.763Z,12.81
2018-08-31T06:20:20.315Z,12.81
2018-08-31T06:20:53.896Z,12.81
2018-08-31T06:21:27.473Z,12.81
2018-08-31T06:22:01.027Z,12.81
2018-08-31T06:22:34.525Z,12.81
2018-08-31T06:23:08.109Z,12.81
2018-08-31T06:23:41.655Z,12.81
2018-08-31T06:24:15.197Z,12.81
2018-08-31T06:24:48.926Z,12.81
2018-08-31T06:25:22.493Z,12.81
2018-08-31T06:25:56.035Z,12.81
2018-08-31T06:26:29.595Z,12.88
2018-08-31T06:27:03.163Z,12.88
2018-08-31T06:27:36.697Z,12.88
2018-08-31T06:28:10.260Z,12.94
2018-08-31T06:28:43.763Z,12.94
2018-08-31T06:29:17.347Z,12.94
2018-08-31T06:29:51.301Z,12.94
2018-08-31T06:30:24.859Z,12.94
2018-08-31T06:30:58.411Z,12.94
2018-08-31T06:31:32.008Z,13.00
2018-08-31T06:32:05.621Z,13.00
2018-08-31T06:32:39.223Z,13.00
2018-08-31T06:33:12.909Z,13.00
2018-08-31T06:33:46.440Z,13.00
2018-08-31T06:34:20.003Z,13.00
2018-08-31T06:34:53.590Z,13.06
2018-08-31T06:35:27.170Z,13.06
2018-08-31T06:36:00.746Z,13.06
2018-08-31T06:36:34.305Z,13.06
2018-08-31T06:37:08.035Z,13.06
2018-08-31T06:37:41.595Z,13.13
2018-08-31T06:38:15.413Z,13.13
2018-08-31T06:38:48.943Z,13.13
2018-08-31T06:39:22.543Z,13.19
2018-08-31T06:39:56.105Z,13.19
2018-08-31T06:40:29.667Z,13.19
2018-08-31T06:41:03.209Z,13.19
2018-08-31T06:41:36.761Z,13.19
2018-08-31T06:42:10.314Z,13.19
2018-08-31T06:42:43.857Z,13.19
2018-08-31T06:43:17.395Z,13.25
2018-08-31T06:43:50.889Z,13.25
2018-08-31T06:44:24.403Z,13.25
2018-08-31T06:44:57.931Z,13.25
2018-08-31T06:45:31.655Z,13.25
2018-08-31T06:46:05.369Z,13.25
2018-08-31T06:46:38.933Z,13.25
2018-08-31T06:47:12.613Z,13.25
2018-08-31T06:47:46.163Z,13.25
2018-08-31T06:48:19.713Z,13.25
2018-08-31T06:48:53.256Z,13.31
2018-08-31T06:49:26.974Z,13.31
2018-08-31T06:50:00.516Z,13.31
2018-08-31T06:50:34.104Z,13.31
2018-08-31T06:51:07.650Z,13.31
2018-08-31T06:51:41.163Z,13.31
2018-08-31T06:52:14.690Z,13.31
2018-08-31T06:52:48.233Z,13.31
2018-08-31T06:53:21.787Z,13.31
2018-08-31T06:53:55.328Z,13.38
2018-08-31T06:54:28.887Z,13.38
2018-08-31T06:55:02.434Z,13.38
2018-08-31T06:55:35.977Z,13.38
2018-08-31T06:56:09.519Z,13.38
2018-08-31T06:56:43.062Z,13.44
2018-08-31T06:57:16.602Z,13.44
2018-08-31T06:57:50.164Z,13.44
2018-08-31T06:58:23.695Z,13.44
2018-08-31T06:58:57.314Z,13.50
2018-08-31T06:59:30.823Z,13.50
2018-08-31T07:00:05.067Z,13.50
2018-08-31T07:00:38.641Z,13.56
2018-08-31T07:01:12.236Z,13.56
2018-08-31T07:01:45.897Z,13.56
2018-08-31T07:02:19.475Z,13.56
2018-08-31T07:02:53.052Z,13.56
2018-08-31T07:03:26.545Z,13.62
2018-08-31T07:04:00.073Z,13.62
2018-08-31T07:04:33.678Z,13.62
2018-08-31T07:05:07.884Z,13.69
2018-08-31T07:05:41.410Z,13.69
2018-08-31T07:06:14.971Z,13.75
2018-08-31T07:06:48.587Z,13.75
2018-08-31T07:07:22.147Z,13.75
2018-08-31T07:07:55.696Z,13.81
2018-08-31T07:08:29.358Z,13.81
2018-08-31T07:09:03.675Z,13.81
2018-08-31T07:09:37.265Z,13.81
2018-08-31T07:10:11.064Z,13.88
2018-08-31T07:10:44.583Z,13.88
2018-08-31T07:11:18.547Z,13.88
2018-08-31T07:11:52.087Z,13.94
2018-08-31T07:12:25.752Z,13.94
2018-08-31T07:12:59.219Z,13.94
2018-08-31T07:13:32.729Z,14.00
2018-08-31T07:14:07.272Z,14.00
2018-08-31T07:14:40.829Z,14.00
2018-08-31T07:15:14.363Z,14.06
2018-08-31T07:15:47.888Z,14.06
2018-08-31T07:16:21.429Z,14.13
2018-08-31T07:16:54.998Z,14.13
2018-08-31T07:17:28.550Z,14.19
2018-08-31T07:18:02.079Z,14.19
2018-08-31T07:18:35.641Z,14.19
2018-08-31T07:19:09.223Z,14.25
2018-08-31T07:19:42.757Z,14.25
2018-08-31T07:20:16.287Z,14.25
2018-08-31T07:20:49.854Z,14.31
2018-08-31T07:21:23.446Z,14.31
2018-08-31T07:21:56.983Z,14.31
2018-08-31T07:22:30.529Z,14.31
2018-08-31T07:23:04.642Z,14.38
2018-08-31T07:23:38.141Z,14.38
2018-08-31T07:24:11.703Z,14.44
2018-08-31T07:24:45.237Z,14.44
2018-08-31T07:25:18.752Z,14.44
2018-08-31T07:25:52.389Z,14.44
2018-08-31T07:26:26.409Z,14.50
2018-08-31T07:26:59.983Z,14.50
2018-08-31T07:27:33.525Z,14.56
2018-08-31T07:28:07.075Z,14.56
2018-08-31T07:28:40.637Z,14.56
2018-08-31T07:29:14.205Z,14.63
2018-08-31T07:29:47.730Z,14.63
2018-08-31T07:30:21.236Z,14.63
2018-08-31T07:30:54.741Z,14.63
2018-08-31T07:31:28.307Z,14.69
2018-08-31T07:32:01.909Z,14.69
2018-08-31T07:32:35.494Z,14.69
2018-08-31T07:33:09.043Z,14.69
2018-08-31T07:33:42.614Z,14.69
2018-08-31T07:34:16.143Z,14.69
2018-08-31T07:34:49.687Z,14.75
2018-08-31T07:35:23.259Z,14.75
2018-08-31T07:35:56.796Z,14.75
2018-08-31T07:36:30.410Z,14.75
2018-08-31T07:37:03.955Z,14.75
2018-08-31T07:37:37.497Z,14.81
2018-08-31T07:38:11.009Z,14.81
2018-08-31T07:38:44.550Z,14.81
2018-08-31T07:39:18.104Z,14.87
2018-08-31T07:39:51.675Z,14.87
2018-08-31T07:40:25.243Z,14.94
2018-08-31T07:40:58.790Z,14.94